createdAt,value
2022-08-18T00:00:28.083Z,25.60
2022-08-18T00:03:05.457Z,25.70
2022-08-18T00:14:03.939Z,25.60
2022-08-18T00:16:34.434Z,25.60
2022-08-18T00:19:09.271Z,25.70
2022-08-18T00:21:40.405Z,25.70
2022-08-18T00:24:10.807Z,25.70
2022-08-18T00:26:41.234Z,25.70
2022-08-18T00:29:17.273Z,25.70
2022-08-18T00:34:33.654Z,25.80
2022-08-18T00:37:04.422Z,25.80
2022-08-18T00:39:39.799Z,25.90
2022-08-18T00:42:28.919Z,25.90
2022-08-18T00:47:50.524Z,26.00
2022-08-18T00:50:36.290Z,26.00
2022-08-18T00:53:15.114Z,26.00
2022-08-18T00:55:54.186Z,26.00
2022-08-18T00:58:32.437Z,26.10
2022-08-18T01:01:09.699Z,26.20
2022-08-18T01:03:42.553Z,26.30
2022-08-18T01:06:25.475Z,26.30
2022-08-18T01:08:56.525Z,26.40
2022-08-18T01:11:26.949Z,26.50
2022-08-18T01:13:57.444Z,26.60
2022-08-18T01:16:40.936Z,26.70
2022-08-18T01:19:41.473Z,26.70
2022-08-18T01:22:31.352Z,26.80
2022-08-18T01:25:23.569Z,26.90
2022-08-18T01:28:00.992Z,26.90
2022-08-18T01:33:19.951Z,27.10
2022-08-18T01:35:51.833Z,27.20
2022-08-18T01:38:24.901Z,27.20
2022-08-18T01:43:42.776Z,27.30
2022-08-18T01:46:13.299Z,27.30
2022-08-18T01:48:45.242Z,27.40
2022-08-18T01:51:15.767Z,27.50
2022-08-18T01:59:19.315Z,27.40
2022-08-18T02:01:52.947Z,27.30
2022-08-18T02:04:36.657Z,27.20
2022-08-18T02:07:11.300Z,27.10
2022-08-18T02:09:43.446Z,27.10
2022-08-18T02:15:00.980Z,27.30
2022-08-18T02:17:31.588Z,27.40
2022-08-18T02:22:51.778Z,27.60
2022-08-18T02:25:23.264Z,27.80
2022-08-18T02:27:53.879Z,27.80
2022-08-18T02:30:24.423Z,27.80
2022-08-18T02:32:54.941Z,27.70
2022-08-18T02:35:25.264Z,27.70
2022-08-18T02:37:56.030Z,27.80
2022-08-18T02:40:26.507Z,27.80
2022-08-18T02:42:57.140Z,27.90
2022-08-18T02:45:27.545Z,27.90
2022-08-18T02:50:48.446Z,28.10
2022-08-18T02:53:24.847Z,28.30
2022-08-18T02:55:55.174Z,28.30
2022-08-18T02:58:26.744Z,28.50
2022-08-18T03:00:59.751Z,28.70
2022-08-18T03:03:30.249Z,28.90
2022-08-18T03:06:00.614Z,29.10
2022-08-18T03:08:31.766Z,29.30
2022-08-18T03:13:48.611Z,29.10
2022-08-18T03:16:19.537Z,28.90
2022-08-18T03:18:51.040Z,28.80
2022-08-18T03:21:24.697Z,28.90
2022-08-18T03:24:01.012Z,28.90
2022-08-18T03:26:33.208Z,29.10
2022-08-18T03:29:04.468Z,29.30
2022-08-18T03:31:34.978Z,29.60
2022-08-18T03:34:05.503Z,29.70
2022-08-18T03:36:39.062Z,29.90
2022-08-18T03:39:12.065Z,30.10
2022-08-18T03:44:32.993Z,30.30
2022-08-18T03:47:05.875Z,30.40
2022-08-18T03:49:39.177Z,30.50
2022-08-18T03:54:11.845Z,30.40
2022-08-18T03:56:43.864Z,30.20
2022-08-18T03:59:20.238Z,30.20
2022-08-18T04:04:42.926Z,30.40
2022-08-18T04:07:16.516Z,30.50
2022-08-18T04:12:34.011Z,30.20
2022-08-18T04:15:04.671Z,30.00
2022-08-18T04:17:35.365Z,30.00
2022-08-18T04:20:26.572Z,30.10
2022-08-18T04:22:58.148Z,30.30
2022-08-18T04:25:32.731Z,30.30
2022-08-18T04:28:05.796Z,30.40
2022-08-18T04:33:22.271Z,30.60
2022-08-18T04:35:52.676Z,30.60
2022-08-18T04:38:23.705Z,30.70
2022-08-18T04:40:54.529Z,30.70
2022-08-18T04:43:25.423Z,30.80
2022-08-18T04:45:55.852Z,30.80
2022-08-18T04:48:26.442Z,30.90
2022-08-18T04:50:56.789Z,31.00
2022-08-18T04:53:44.972Z,31.00
2022-08-18T04:59:18.724Z,31.10
2022-08-18T05:01:49.864Z,31.20
2022-08-18T05:04:21.259Z,31.20
2022-08-18T05:12:26.407Z,31.50
2022-08-18T05:14:59.878Z,31.50
2022-08-18T05:17:31.308Z,31.40
2022-08-18T05:20:06.741Z,31.40
2022-08-18T05:22:42.887Z,31.50
2022-08-18T05:25:15.639Z,31.60
2022-08-18T05:27:46.928Z,31.70
2022-08-18T05:30:17.735Z,31.80
2022-08-18T05:32:50.555Z,31.90
2022-08-18T05:35:32.119Z,32.00
2022-08-18T05:38:41.942Z,32.10
2022-08-18T05:41:17.881Z,32.00
2022-08-18T05:43:52.019Z,32.10
2022-08-18T05:46:28.154Z,32.20
2022-08-18T05:48:58.591Z,32.10
2022-08-18T05:51:42.185Z,32.00
2022-08-18T05:54:30.993Z,32.20
2022-08-18T05:57:10.809Z,32.30
2022-08-18T06:02:42.131Z,32.50
2022-08-18T06:08:13.044Z,32.20
2022-08-18T06:10:48.901Z,32.20
2022-08-18T06:13:24.759Z,32.30
2022-08-18T06:16:24.352Z,32.20
2022-08-18T06:22:24.565Z,32.20
2022-08-18T06:28:11.334Z,32.30
2022-08-18T06:31:05.950Z,32.40
2022-08-18T06:33:56.609Z,32.50
2022-08-18T06:36:52.452Z,32.60
2022-08-18T06:39:50.044Z,32.60
2022-08-18T06:42:28.416Z,32.70
2022-08-18T06:45:07.734Z,32.90
2022-08-18T06:47:43.197Z,32.70
2022-08-18T06:50:31.096Z,32.60
2022-08-18T06:53:04.777Z,32.50
2022-08-18T06:58:32.565Z,32.80
2022-08-18T07:06:46.081Z,32.90
2022-08-18T07:09:28.062Z,32.90
2022-08-18T07:12:07.026Z,32.90
2022-08-18T07:14:48.570Z,32.90
2022-08-18T07:17:43.565Z,32.90
2022-08-18T07:20:30.351Z,32.70
2022-08-18T07:23:08.333Z,32.50
2022-08-18T07:28:41.791Z,32.70
2022-08-18T07:31:17.602Z,32.80
2022-08-18T07:33:56.662Z,32.90
2022-08-18T07:39:29.096Z,33.00
2022-08-18T07:42:17.011Z,33.10
2022-08-18T07:45:24.030Z,33.20
2022-08-18T07:48:36.901Z,33.20
2022-08-18T07:51:45.689Z,33.20
2022-08-18T07:54:48.794Z,33.10
2022-08-18T07:57:30.000Z,33.10
2022-08-18T08:00:18.641Z,33.20
2022-08-18T08:03:25.549Z,33.10
2022-08-18T08:06:07.936Z,32.90
2022-08-18T08:08:47.155Z,32.90
2022-08-18T08:11:36.661Z,32.90
2022-08-18T08:14:31.540Z,33.00
2022-08-18T08:17:27.129Z,33.10
2022-08-18T08:20:16.951Z,33.20
2022-08-18T08:23:08.062Z,33.00
2022-08-18T08:26:07.626Z,33.00
2022-08-18T08:32:04.117Z,32.90
2022-08-18T08:35:49.613Z,32.90
2022-08-18T08:38:38.746Z,32.90
2022-08-18T08:41:15.492Z,32.90
2022-08-18T08:50:00.788Z,32.70
2022-08-18T08:56:16.788Z,32.90
2022-08-18T08:59:03.954Z,32.70
2022-08-18T09:02:07.148Z,32.70
2022-08-18T09:08:22.412Z,32.90
2022-08-18T09:17:52.806Z,32.90
2022-08-18T09:20:52.597Z,32.90
2022-08-18T09:23:30.026Z,32.80
2022-08-18T09:33:00.361Z,33.00
2022-08-18T09:36:02.657Z,33.10
2022-08-18T09:38:45.171Z,33.20
2022-08-18T09:41:43.806Z,33.10
2022-08-18T09:44:26.806Z,33.00
2022-08-18T09:46:59.301Z,32.80
2022-08-18T09:49:47.818Z,32.70
2022-08-18T09:52:54.518Z,32.60
2022-08-18T09:56:00.542Z,32.60
2022-08-18T09:58:54.939Z,32.50
2022-08-18T10:01:40.839Z,32.60
2022-08-18T10:04:29.495Z,32.50
2022-08-18T10:07:19.795Z,32.50
2022-08-18T10:13:37.497Z,32.40
2022-08-18T10:17:05.005Z,32.10
2022-08-18T10:19:50.423Z,32.00
2022-08-18T10:22:44.467Z,32.00
2022-08-18T10:25:23.620Z,31.90
2022-08-18T10:27:57.749Z,31.90
2022-08-18T10:30:57.555Z,31.80
2022-08-18T10:34:23.348Z,31.70
2022-08-18T10:36:59.382Z,31.60
2022-08-18T10:39:52.306Z,31.60
2022-08-18T10:42:44.554Z,31.60
2022-08-18T10:45:36.551Z,31.60
2022-08-18T10:48:24.195Z,31.50
2022-08-18T10:51:21.354Z,31.50
2022-08-18T10:54:19.042Z,31.50
2022-08-18T10:56:54.838Z,31.50
2022-08-18T10:59:54.475Z,31.50
2022-08-18T11:03:01.987Z,31.50
2022-08-18T11:05:33.635Z,31.50
2022-08-18T11:08:15.757Z,31.60
2022-08-18T11:11:27.350Z,31.60
2022-08-18T11:14:10.140Z,31.60
2022-08-18T11:17:15.990Z,31.40
2022-08-18T11:19:50.802Z,31.50
2022-08-18T11:22:43.127Z,31.40
2022-08-18T11:25:28.066Z,31.40
2022-08-18T11:27:59.233Z,31.30
2022-08-18T11:30:35.334Z,31.30
2022-08-18T11:33:06.129Z,31.30
2022-08-18T11:35:51.420Z,31.30
2022-08-18T11:38:23.475Z,31.40
2022-08-18T11:41:12.596Z,31.30
2022-08-18T11:43:43.153Z,31.30
2022-08-18T11:46:31.748Z,31.20
2022-08-18T11:49:15.695Z,31.20
2022-08-18T11:54:54.047Z,31.10
2022-08-18T11:57:50.623Z,31.00
2022-08-18T12:00:49.861Z,31.00
2022-08-18T12:03:31.013Z,30.80
2022-08-18T12:06:19.052Z,30.70
2022-08-18T12:09:01.839Z,30.60
2022-08-18T12:11:35.521Z,30.60
2022-08-18T12:14:32.380Z,30.60
2022-08-18T12:17:01.960Z,30.50
2022-08-18T12:19:34.502Z,30.40
2022-08-18T12:22:14.779Z,30.40
2022-08-18T12:24:43.951Z,30.30
2022-08-18T12:27:21.090Z,30.30
2022-08-18T12:29:53.823Z,30.20
2022-08-18T12:32:48.938Z,30.20
2022-08-18T12:35:15.547Z,30.10
2022-08-18T12:38:11.457Z,30.10
2022-08-18T12:40:35.789Z,30.00
2022-08-18T12:43:05.798Z,30.00
2022-08-18T12:45:37.889Z,29.90
2022-08-18T12:48:08.689Z,29.90
2022-08-18T12:50:49.927Z,29.90
2022-08-18T12:53:29.964Z,29.80
2022-08-18T12:56:22.966Z,29.80
2022-08-18T12:58:56.452Z,29.70
2022-08-18T13:01:26.819Z,29.70
2022-08-18T13:04:11.012Z,29.70
2022-08-18T13:06:58.868Z,29.70
2022-08-18T13:09:35.306Z,29.60
2022-08-18T13:12:21.838Z,29.50
2022-08-18T13:14:51.519Z,29.50
2022-08-18T13:17:29.529Z,29.50
2022-08-18T13:20:05.205Z,29.40
2022-08-18T13:22:34.346Z,29.30
2022-08-18T13:25:06.999Z,29.20
2022-08-18T13:27:38.164Z,29.00
2022-08-18T13:30:30.191Z,29.00
2022-08-18T13:33:06.122Z,29.00
2022-08-18T13:35:54.811Z,29.00
2022-08-18T13:38:27.736Z,28.90
2022-08-18T13:41:00.545Z,28.90
2022-08-18T13:43:34.440Z,28.90
2022-08-18T13:46:05.217Z,28.90
2022-08-18T13:48:34.892Z,28.90
2022-08-18T13:51:04.449Z,28.90
2022-08-18T13:53:37.549Z,28.90
2022-08-18T13:56:21.542Z,28.90
2022-08-18T13:59:01.176Z,28.90
2022-08-18T14:01:51.644Z,28.90
2022-08-18T14:04:20.220Z,28.90
2022-08-18T14:06:56.266Z,29.00
2022-08-18T14:09:37.243Z,29.00
2022-08-18T14:12:15.256Z,29.00
2022-08-18T14:14:51.955Z,28.90
2022-08-18T14:17:23.177Z,28.80
2022-08-18T14:20:04.431Z,28.80
2022-08-18T14:22:44.652Z,28.70
2022-08-18T14:25:25.878Z,28.80
2022-08-18T14:27:56.826Z,28.80
2022-08-18T14:30:26.635Z,28.70
2022-08-18T14:32:56.054Z,28.70
2022-08-18T14:36:03.957Z,28.60
2022-08-18T14:38:18.389Z,28.70
2022-08-18T14:40:49.016Z,28.70
2022-08-18T14:43:24.911Z,28.70
2022-08-18T14:45:58.214Z,28.70
2022-08-18T14:48:28.391Z,28.70
2022-08-18T14:51:03.078Z,28.80
2022-08-18T14:53:35.205Z,28.70
2022-08-18T14:56:06.999Z,28.70
2022-08-18T14:58:39.136Z,28.70
2022-08-18T15:01:11.149Z,28.70
2022-08-18T15:03:41.527Z,28.60
2022-08-18T15:06:17.064Z,28.60
2022-08-18T15:08:51.919Z,28.60
2022-08-18T15:11:23.887Z,28.50
2022-08-18T15:13:55.126Z,28.50
2022-08-18T15:16:31.646Z,28.40
2022-08-18T15:19:01.976Z,28.30
2022-08-18T15:21:51.261Z,28.20
2022-08-18T15:24:41.460Z,28.10
2022-08-18T15:27:19.377Z,27.90
2022-08-18T15:29:48.890Z,27.90
2022-08-18T15:32:20.904Z,27.70
2022-08-18T15:34:51.176Z,27.40
2022-08-18T15:37:24.339Z,27.40
2022-08-18T15:40:04.528Z,27.20
2022-08-18T15:42:33.806Z,27.10
2022-08-18T15:45:11.675Z,27.10
2022-08-18T15:47:46.515Z,27.00
2022-08-18T15:50:25.332Z,26.90
2022-08-18T15:53:01.816Z,27.00
2022-08-18T15:55:35.913Z,26.90
2022-08-18T15:58:11.195Z,26.90
2022-08-18T16:00:45.566Z,26.80
2022-08-18T16:03:16.920Z,26.60
2022-08-18T16:05:57.506Z,26.60
2022-08-18T16:08:29.501Z,26.60
2022-08-18T16:10:59.238Z,26.60
2022-08-18T16:13:30.523Z,26.70
2022-08-18T16:15:59.701Z,26.70
2022-08-18T16:18:30.481Z,26.60
2022-08-18T16:21:11.311Z,26.50
2022-08-18T16:23:42.893Z,26.50
2022-08-18T16:28:53.492Z,26.40
2022-08-18T16:31:29.622Z,26.40
2022-08-18T16:33:59.698Z,26.40
2022-08-18T16:36:28.903Z,26.50
2022-08-18T16:38:58.307Z,26.50
2022-08-18T16:41:28.695Z,26.50
2022-08-18T16:43:57.872Z,26.50
2022-08-18T16:46:29.809Z,26.50
2022-08-18T16:49:00.860Z,26.30
2022-08-18T16:51:30.549Z,26.20
2022-08-18T16:54:00.467Z,26.10
2022-08-18T16:56:30.788Z,26.00
2022-08-18T16:59:11.705Z,26.00
2022-08-18T17:01:53.847Z,26.00
2022-08-18T17:04:26.059Z,25.90
2022-08-18T17:06:55.284Z,25.80
2022-08-18T17:09:25.915Z,25.70
2022-08-18T17:11:55.657Z,25.60
2022-08-18T17:14:27.397Z,25.50
2022-08-18T17:16:59.549Z,25.50
2022-08-18T17:19:34.501Z,25.60
2022-08-18T17:22:06.259Z,25.70
2022-08-18T17:24:35.427Z,25.70
2022-08-18T17:27:27.206Z,25.70
2022-08-18T17:30:11.004Z,25.80
2022-08-18T17:32:47.965Z,25.80
2022-08-18T17:35:29.007Z,25.90
2022-08-18T17:38:33.965Z,25.90
2022-08-18T17:41:05.307Z,25.90
2022-08-18T17:46:28.327Z,26.10
2022-08-18T17:49:14.069Z,26.10
2022-08-18T17:51:52.489Z,26.20
2022-08-18T17:54:43.163Z,26.30
2022-08-18T17:57:19.684Z,26.30
2022-08-18T18:00:05.145Z,26.20
2022-08-18T18:02:35.014Z,26.10
2022-08-18T18:05:07.260Z,26.10
2022-08-18T18:07:57.726Z,26.10
2022-08-18T18:11:03.971Z,26.00
2022-08-18T18:13:34.633Z,26.10
2022-08-18T18:16:29.866Z,26.10
2022-08-18T18:19:04.036Z,26.00
2022-08-18T18:22:00.356Z,25.90
2022-08-18T18:24:33.937Z,25.80
2022-08-18T18:27:04.172Z,25.70
2022-08-18T18:29:37.949Z,25.80
2022-08-18T18:32:30.891Z,25.90
2022-08-18T18:35:16.378Z,25.80
2022-08-18T18:37:53.015Z,25.80
2022-08-18T18:40:51.639Z,25.60
2022-08-18T18:43:26.350Z,25.50
2022-08-18T18:46:09.295Z,25.40
2022-08-18T18:49:06.043Z,25.30
2022-08-18T18:52:03.139Z,25.30
2022-08-18T18:55:04.067Z,25.30
2022-08-18T18:57:50.164Z,25.30
2022-08-18T19:00:36.436Z,25.30
2022-08-18T19:03:24.373Z,25.40
2022-08-18T19:06:30.412Z,25.50
2022-08-18T19:09:26.631Z,25.50
2022-08-18T19:12:25.254Z,25.60
2022-08-18T19:15:04.484Z,25.50
2022-08-18T19:17:41.493Z,25.50
2022-08-18T19:20:37.857Z,25.40
2022-08-18T19:23:44.501Z,25.40
2022-08-18T19:26:15.818Z,25.50
2022-08-18T19:29:11.989Z,25.50
2022-08-18T19:31:46.377Z,25.50
2022-08-18T19:34:31.110Z,25.50
2022-08-18T19:37:31.602Z,25.60
2022-08-18T19:40:20.168Z,25.60
2022-08-18T19:43:13.410Z,25.70
2022-08-18T19:46:11.713Z,25.70
2022-08-18T19:48:54.158Z,25.70
2022-08-18T19:51:39.596Z,25.70
2022-08-18T19:54:34.924Z,25.80
2022-08-18T19:57:35.495Z,25.80
2022-08-18T20:00:35.002Z,25.70
2022-08-18T20:03:43.130Z,25.80
2022-08-18T20:10:03.911Z,25.70
2022-08-18T20:12:54.463Z,25.70
2022-08-18T20:15:26.906Z,25.60
2022-08-18T20:18:05.730Z,25.60
2022-08-18T20:20:40.885Z,25.60
2022-08-18T20:23:32.775Z,25.60
2022-08-18T20:26:03.072Z,25.40
2022-08-18T20:28:37.368Z,25.40
2022-08-18T20:31:15.005Z,25.20
2022-08-18T20:34:06.169Z,25.00
2022-08-18T20:36:39.486Z,25.00
2022-08-18T20:39:43.330Z,25.10
2022-08-18T20:43:06.632Z,25.20
2022-08-18T20:45:42.676Z,25.20
2022-08-18T20:48:34.262Z,25.30
2022-08-18T20:51:13.671Z,25.30
2022-08-18T20:54:13.114Z,25.30
2022-08-18T20:59:57.982Z,25.30
2022-08-18T21:02:34.082Z,25.10
2022-08-18T21:05:04.630Z,25.10
2022-08-18T21:07:42.211Z,25.00
2022-08-18T21:10:32.231Z,25.00
2022-08-18T21:15:54.279Z,24.90
2022-08-18T21:21:27.114Z,24.90
2022-08-18T21:24:00.942Z,24.90
2022-08-18T21:26:34.117Z,24.90
2022-08-18T21:29:11.095Z,24.90
2022-08-18T21:31:48.039Z,25.10
2022-08-18T21:34:35.808Z,25.10
2022-08-18T21:37:10.906Z,24.90
2022-08-18T21:39:57.548Z,24.90
2022-08-18T21:45:25.382Z,24.70
2022-08-18T21:48:01.143Z,24.60
2022-08-18T21:53:28.237Z,24.50
2022-08-18T21:55:59.540Z,24.50
2022-08-18T22:01:34.509Z,24.50
2022-08-18T22:04:22.806Z,24.50
2022-08-18T22:07:03.246Z,24.40
2022-08-18T22:13:17.329Z,24.50
2022-08-18T22:15:50.956Z,24.50
2022-08-18T22:18:37.275Z,24.40
2022-08-18T22:21:11.998Z,24.40
2022-08-18T22:23:58.499Z,24.40
2022-08-18T22:32:31.893Z,24.40
2022-08-18T22:35:02.257Z,24.40
2022-08-18T22:37:38.874Z,24.30
2022-08-18T22:40:14.762Z,24.30
2022-08-18T22:42:46.399Z,24.40
2022-08-18T22:45:17.125Z,24.40
2022-08-18T22:47:51.191Z,24.40
2022-08-18T22:55:55.386Z,24.50
2022-08-18T22:58:29.861Z,24.50
2022-08-18T23:03:48.201Z,24.50
2022-08-18T23:06:18.747Z,24.60
2022-08-18T23:08:54.999Z,24.60
2022-08-18T23:11:27.443Z,24.60
2022-08-18T23:13:58.732Z,24.60
2022-08-18T23:16:31.226Z,24.60
2022-08-18T23:19:05.036Z,24.60
2022-08-18T23:21:36.936Z,24.50
2022-08-18T23:24:09.169Z,24.60
2022-08-18T23:26:39.705Z,24.60
2022-08-18T23:29:14.228Z,24.60
2022-08-18T23:31:47.030Z,24.60
2022-08-18T23:37:07.406Z,24.60
2022-08-18T23:39:38.747Z,24.60
2022-08-18T23:42:15.076Z,24.70
2022-08-18T23:44:45.540Z,24.70
2022-08-18T23:47:16.005Z,24.70
2022-08-18T23:49:46.400Z,24.70
2022-08-18T23:52:16.892Z,24.60
2022-08-18T23:57:33.486Z,24.50
